createdAt,value
2023-04-18T00:00:58.714Z,25.2234
2023-04-18T00:02:02.663Z,25.2107
2023-04-18T00:03:06.802Z,25.1916
2023-04-18T00:04:11.045Z,25.1809
2023-04-18T00:05:15.275Z,25.1802
2023-04-18T00:06:19.172Z,25.1740
2023-04-18T00:07:23.086Z,25.1889
2023-04-18T00:08:26.981Z,25.2248
2023-04-18T00:09:30.925Z,25.2167
2023-04-18T00:10:35.049Z,25.1774
2023-04-18T00:11:38.956Z,25.1582
2023-04-18T00:12:43.312Z,25.1740
2023-04-18T00:13:47.241Z,25.1909
2023-04-18T00:14:51.124Z,25.1791
2023-04-18T00:15:55.054Z,25.1811
2023-04-18T00:16:58.988Z,25.1825
2023-04-18T00:18:03.328Z,25.1920
2023-04-18T00:19:07.280Z,25.2009
2023-04-18T00:20:11.450Z,25.1978
2023-04-18T00:21:15.331Z,25.1767
2023-04-18T00:22:19.247Z,25.1638
2023-04-18T00:23:23.155Z,25.1631
2023-04-18T00:24:27.054Z,25.1891
2023-04-18T00:25:30.972Z,25.1682
2023-04-18T00:26:34.872Z,25.1745
2023-04-18T00:27:39.049Z,25.1580
2023-04-18T00:28:42.926Z,25.1547
2023-04-18T00:29:47.072Z,25.1727
2023-04-18T00:30:50.988Z,25.1595
2023-04-18T00:31:54.874Z,25.1502
2023-04-18T00:32:58.807Z,25.1580
2023-04-18T00:34:02.716Z,25.1776
2023-04-18T00:35:06.947Z,25.1849
2023-04-18T00:36:10.849Z,25.1593
2023-04-18T00:37:14.771Z,25.1622
2023-04-18T00:38:18.720Z,25.1578
2023-04-18T00:39:22.617Z,25.2049
2023-04-18T00:40:26.781Z,25.2003
2023-04-18T00:41:30.709Z,25.1760
2023-04-18T00:42:34.913Z,25.1506
2023-04-18T00:43:38.989Z,25.1395
2023-04-18T00:44:42.899Z,25.1582
2023-04-18T00:45:46.828Z,25.1549
2023-04-18T00:46:50.722Z,25.1667
2023-04-18T00:47:54.656Z,25.1658
2023-04-18T00:48:58.586Z,25.1733
2023-04-18T00:50:02.492Z,25.1653
2023-04-18T00:51:06.400Z,25.1785
2023-04-18T00:52:10.305Z,25.1598
2023-04-18T00:53:14.215Z,25.1753
2023-04-18T00:54:18.125Z,25.1800
2023-04-18T00:55:22.247Z,25.1994
2023-04-18T00:56:26.167Z,25.1791
2023-04-18T00:57:30.286Z,25.1611
2023-04-18T00:58:34.196Z,25.1498
2023-04-18T00:59:38.107Z,25.1669
2023-04-18T01:00:42.017Z,25.1322
2023-04-18T01:01:45.926Z,25.1377
2023-04-18T01:02:50.302Z,25.1687
2023-04-18T01:03:54.318Z,25.1580
2023-04-18T01:04:58.520Z,25.1573
2023-04-18T01:06:02.413Z,25.1527
2023-04-18T01:07:06.369Z,25.1542
2023-04-18T01:08:10.238Z,25.1582
2023-04-18T01:09:14.161Z,25.1498
2023-04-18T01:10:18.384Z,25.1749
2023-04-18T01:11:22.275Z,25.1642
2023-04-18T01:12:26.186Z,25.1747
2023-04-18T01:13:30.081Z,25.1727
2023-04-18T01:14:33.987Z,25.1593
2023-04-18T01:15:37.948Z,25.1424
2023-04-18T01:16:41.814Z,25.1213
2023-04-18T01:17:45.729Z,25.1473
2023-04-18T01:18:49.657Z,25.1422
2023-04-18T01:19:53.817Z,25.1331
2023-04-18T01:20:57.730Z,25.1313
2023-04-18T01:22:01.622Z,25.1638
2023-04-18T01:23:05.528Z,25.1491
2023-04-18T01:24:09.429Z,25.1551
2023-04-18T01:25:13.334Z,25.1664
2023-04-18T01:26:17.269Z,25.1598
2023-04-18T01:27:21.442Z,25.1504
2023-04-18T01:28:25.337Z,25.1211
2023-04-18T01:29:29.480Z,25.1202
2023-04-18T01:30:33.387Z,25.1553
2023-04-18T01:31:37.346Z,25.1482
2023-04-18T01:32:41.293Z,25.1384
2023-04-18T01:33:45.187Z,25.1524
2023-04-18T01:34:49.114Z,25.1373
2023-04-18T01:35:53.029Z,25.1460
2023-04-18T01:36:56.922Z,25.1369
2023-04-18T01:38:00.827Z,25.1498
2023-04-18T01:39:04.741Z,25.1609
2023-04-18T01:40:08.979Z,25.1662
2023-04-18T01:41:12.859Z,25.1609
2023-04-18T01:42:16.773Z,25.1529
2023-04-18T01:43:20.684Z,25.1371
2023-04-18T01:44:24.594Z,25.1453
2023-04-18T01:45:28.511Z,25.1351
2023-04-18T01:46:32.473Z,25.1373
2023-04-18T01:47:36.558Z,25.1435
2023-04-18T01:48:40.483Z,25.1130
2023-04-18T01:49:44.374Z,25.1295
2023-04-18T01:50:48.287Z,25.1208
2023-04-18T01:51:52.181Z,25.1130
2023-04-18T01:52:56.107Z,25.1320
2023-04-18T01:54:00.020Z,25.1391
2023-04-18T01:55:04.146Z,25.1333
2023-04-18T01:56:08.070Z,25.1315
2023-04-18T01:57:12.005Z,25.1397
2023-04-18T01:58:15.909Z,25.1384
2023-04-18T01:59:19.810Z,25.1206
2023-04-18T02:00:23.934Z,25.1153
2023-04-18T02:01:27.888Z,25.1008
2023-04-18T02:02:32.087Z,25.1393
2023-04-18T02:03:36.259Z,25.1380
2023-04-18T02:04:40.236Z,25.1551
2023-04-18T02:05:44.171Z,25.1524
2023-04-18T02:06:48.079Z,25.1397
2023-04-18T02:07:52.008Z,25.1386
2023-04-18T02:08:55.934Z,25.1291
2023-04-18T02:10:00.071Z,25.1555
2023-04-18T02:11:03.934Z,25.1411
2023-04-18T02:12:08.084Z,25.1397
2023-04-18T02:13:11.989Z,25.1226
2023-04-18T02:14:15.928Z,25.1271
2023-04-18T02:15:19.888Z,25.1342
2023-04-18T02:16:23.831Z,25.1373
2023-04-18T02:17:27.740Z,25.1482
2023-04-18T02:18:31.607Z,25.1322
2023-04-18T02:19:35.765Z,25.1357
2023-04-18T02:20:39.651Z,25.1435
2023-04-18T02:21:43.557Z,25.1204
2023-04-18T02:22:47.466Z,25.1024
2023-04-18T02:23:51.383Z,25.1068
2023-04-18T02:24:55.532Z,25.1449
2023-04-18T02:25:59.436Z,25.1484
2023-04-18T02:27:03.329Z,25.1095
2023-04-18T02:28:07.229Z,25.1295
2023-04-18T02:29:11.134Z,25.1166
2023-04-18T02:30:15.029Z,25.1262
2023-04-18T02:31:18.931Z,25.1306
2023-04-18T02:32:22.850Z,25.1373
2023-04-18T02:33:26.745Z,25.1202
2023-04-18T02:34:30.956Z,25.1106
2023-04-18T02:35:34.829Z,25.1248
2023-04-18T02:36:38.711Z,25.1188
2023-04-18T02:37:42.608Z,25.1313
2023-04-18T02:38:46.493Z,25.1253
2023-04-18T02:39:50.396Z,25.1264
2023-04-18T02:40:54.308Z,25.1206
2023-04-18T02:41:58.436Z,25.1066
2023-04-18T02:43:02.332Z,25.1397
2023-04-18T02:44:06.237Z,25.1502
2023-04-18T02:45:10.377Z,25.1213
2023-04-18T02:46:14.323Z,25.1311
2023-04-18T02:47:18.207Z,25.1466
2023-04-18T02:48:22.114Z,25.1377
2023-04-18T02:49:25.979Z,25.1353
2023-04-18T02:50:29.887Z,25.1259
2023-04-18T02:51:33.814Z,25.1195
2023-04-18T02:52:37.722Z,25.1248
2023-04-18T02:53:41.658Z,25.1373
2023-04-18T02:54:45.741Z,25.1219
2023-04-18T02:55:49.626Z,25.1469
2023-04-18T02:56:53.740Z,25.1529
2023-04-18T02:57:57.624Z,25.1678
2023-04-18T02:59:01.519Z,25.1760
2023-04-18T03:00:05.381Z,25.1640
2023-04-18T03:01:09.313Z,25.1616
2023-04-18T03:02:13.466Z,25.1642
2023-04-18T03:03:17.391Z,25.1611
2023-04-18T03:04:21.310Z,25.1253
2023-04-18T03:05:25.187Z,25.1286
2023-04-18T03:06:29.074Z,25.1369
2023-04-18T03:07:33.009Z,25.1486
2023-04-18T03:08:36.920Z,25.1244
2023-04-18T03:09:41.040Z,25.1231
2023-04-18T03:10:44.920Z,25.1315
2023-04-18T03:11:48.914Z,25.1224
2023-04-18T03:12:52.804Z,25.0605
2023-04-18T03:13:56.722Z,25.0750
2023-04-18T03:15:00.624Z,25.0539
2023-04-18T03:16:04.629Z,25.1170
2023-04-18T03:17:08.761Z,25.1560
2023-04-18T03:18:12.681Z,25.1713
2023-04-18T03:19:16.831Z,25.2150
2023-04-18T03:20:20.733Z,25.1989
2023-04-18T03:21:24.624Z,25.2205
2023-04-18T03:22:28.525Z,25.1967
2023-04-18T03:23:32.407Z,25.1891
2023-04-18T03:24:36.521Z,25.1569
2023-04-18T03:25:40.402Z,25.1489
2023-04-18T03:26:44.524Z,25.1197
2023-04-18T03:27:48.407Z,25.0314
2023-04-18T03:28:52.301Z,25.0091
2023-04-18T03:29:56.185Z,24.9811
2023-04-18T03:31:00.144Z,24.9312
2023-04-18T03:32:04.055Z,24.9464
2023-04-18T03:33:07.953Z,24.9295
2023-04-18T03:34:12.120Z,24.9448
2023-04-18T03:35:16.217Z,24.9419
2023-04-18T03:36:20.138Z,24.9217
2023-04-18T03:37:24.046Z,24.9016
2023-04-18T03:38:27.944Z,24.9235
2023-04-18T03:39:32.078Z,24.8947
2023-04-18T03:40:35.966Z,24.8876
2023-04-18T03:41:39.835Z,24.8856
2023-04-18T03:42:43.724Z,24.9246
2023-04-18T03:43:47.594Z,24.9631
2023-04-18T03:44:51.498Z,24.9504
2023-04-18T03:45:55.411Z,24.9408
2023-04-18T03:46:59.614Z,24.9406
2023-04-18T03:48:03.502Z,24.9453
2023-04-18T03:49:07.560Z,24.9461
2023-04-18T03:50:11.439Z,24.9724
2023-04-18T03:51:15.316Z,24.9479
2023-04-18T03:52:19.198Z,24.9154
2023-04-18T03:53:23.081Z,24.9386
2023-04-18T03:54:27.281Z,24.9508
2023-04-18T03:55:31.172Z,24.9270
2023-04-18T03:56:35.793Z,24.9395
2023-04-18T03:57:41.275Z,24.9495
2023-04-18T03:58:39.983Z,24.9888
2023-04-18T03:59:45.567Z,25.0044
2023-04-18T04:00:45.274Z,24.9847
2023-04-18T04:01:49.488Z,24.9993
2023-04-18T04:02:53.520Z,25.0307
2023-04-18T04:03:57.559Z,25.0044
2023-04-18T04:05:01.519Z,24.9984
2023-04-18T04:06:05.445Z,25.0042
2023-04-18T04:07:09.571Z,25.0234
2023-04-18T04:08:13.475Z,25.0356
2023-04-18T04:09:17.374Z,25.1010
2023-04-18T04:10:21.282Z,25.0723
2023-04-18T04:11:25.197Z,25.0536
2023-04-18T04:12:29.156Z,25.0717
2023-04-18T04:13:33.036Z,25.0701
2023-04-18T04:14:37.035Z,25.0323
2023-04-18T04:15:40.928Z,25.0761
2023-04-18T04:16:45.027Z,25.0912
2023-04-18T04:17:48.976Z,25.1106
2023-04-18T04:18:52.865Z,25.1104
2023-04-18T04:19:56.748Z,25.1455
2023-04-18T04:21:00.660Z,25.1495
2023-04-18T04:22:04.558Z,25.1295
2023-04-18T04:23:08.467Z,25.1320
2023-04-18T04:24:12.534Z,25.1460
2023-04-18T04:25:16.546Z,25.1707
2023-04-18T04:26:20.460Z,25.1876
2023-04-18T04:27:24.383Z,25.2212
2023-04-18T04:28:28.272Z,25.2528
2023-04-18T04:29:32.423Z,25.3058
2023-04-18T04:30:36.313Z,25.2492
2023-04-18T04:31:40.472Z,25.2699
2023-04-18T04:32:44.375Z,25.2819
2023-04-18T04:33:48.242Z,25.2940
2023-04-18T04:34:52.121Z,25.2957
2023-04-18T04:35:56.024Z,25.2802
2023-04-18T04:36:59.914Z,25.2661
2023-04-18T04:38:03.813Z,25.2426
2023-04-18T04:39:07.938Z,25.2243
2023-04-18T04:40:11.847Z,25.2259
2023-04-18T04:41:15.709Z,25.2078
2023-04-18T04:42:19.588Z,25.2328
2023-04-18T04:43:23.488Z,25.2301
2023-04-18T04:44:27.700Z,25.2232
2023-04-18T04:45:31.612Z,25.1954
2023-04-18T04:46:35.773Z,25.1680
2023-04-18T04:47:39.739Z,25.1649
2023-04-18T04:48:43.649Z,25.1918
2023-04-18T04:49:47.493Z,25.1758
2023-04-18T04:50:51.376Z,25.1720
2023-04-18T04:51:55.285Z,25.1916
2023-04-18T04:52:59.185Z,25.1731
2023-04-18T04:54:03.109Z,25.1814
2023-04-18T04:55:06.988Z,25.1771
2023-04-18T04:56:10.859Z,25.1776
2023-04-18T04:57:14.768Z,25.1651
2023-04-18T04:58:18.685Z,25.1573
2023-04-18T04:59:22.989Z,25.1662
2023-04-18T05:00:26.910Z,25.1671
2023-04-18T05:01:31.061Z,25.1351
2023-04-18T05:02:35.050Z,25.1529
2023-04-18T05:03:39.438Z,25.1711
2023-04-18T05:04:43.431Z,25.1651
2023-04-18T05:05:47.275Z,25.1515
2023-04-18T05:06:51.264Z,25.1478
2023-04-18T05:07:55.153Z,25.1591
2023-04-18T05:08:59.043Z,25.1280
2023-04-18T05:10:02.969Z,25.1088
2023-04-18T05:11:06.863Z,25.1028
2023-04-18T05:12:11.012Z,25.1484
2023-04-18T05:13:14.915Z,25.1607
2023-04-18T05:14:19.025Z,25.1159
2023-04-18T05:15:22.914Z,25.0799
2023-04-18T05:16:26.872Z,25.0645
2023-04-18T05:17:30.789Z,25.0418
2023-04-18T05:18:35.092Z,24.9802
2023-04-18T05:19:39.019Z,24.9292
2023-04-18T05:20:42.901Z,24.9426
2023-04-18T05:21:46.779Z,24.9744
2023-04-18T05:22:50.686Z,24.9542
2023-04-18T05:23:54.867Z,24.9088
2023-04-18T05:24:58.749Z,24.8874
2023-04-18T05:26:02.678Z,24.8687
2023-04-18T05:27:06.592Z,24.8329
2023-04-18T05:28:10.471Z,24.8213
2023-04-18T05:29:14.347Z,24.7839
2023-04-18T05:30:18.264Z,24.7877
2023-04-18T05:31:22.201Z,24.8645
2023-04-18T05:32:26.057Z,24.8829
2023-04-18T05:33:29.953Z,24.9048
2023-04-18T05:34:33.839Z,24.8903
2023-04-18T05:35:37.745Z,24.9286
2023-04-18T05:36:41.658Z,24.9181
2023-04-18T05:37:45.541Z,24.8785
2023-04-18T05:38:49.456Z,24.8807
2023-04-18T05:39:53.343Z,24.9268
2023-04-18T05:40:57.221Z,24.9597
2023-04-18T05:42:01.367Z,24.9677
2023-04-18T05:43:05.269Z,25.0162
2023-04-18T05:44:09.186Z,24.9956
2023-04-18T05:45:13.086Z,25.0127
2023-04-18T05:46:17.300Z,25.0243
2023-04-18T05:47:21.275Z,25.0343
2023-04-18T05:48:25.188Z,25.0917
2023-04-18T05:49:29.063Z,25.0576
2023-04-18T05:50:32.958Z,25.1019
2023-04-18T05:51:37.083Z,25.1578
2023-04-18T05:52:40.984Z,25.0643
2023-04-18T05:53:44.855Z,25.0937
2023-04-18T05:54:48.757Z,25.1044
2023-04-18T05:55:52.635Z,25.1081
2023-04-18T05:56:56.528Z,25.1411
2023-04-18T05:58:00.437Z,25.1535
2023-04-18T05:59:04.587Z,25.2083
2023-04-18T06:00:08.476Z,25.1954
2023-04-18T06:01:12.407Z,25.1636
2023-04-18T06:02:16.379Z,25.2245
2023-04-18T06:03:20.600Z,25.2007
2023-04-18T06:04:24.670Z,25.2116
2023-04-18T06:05:28.899Z,25.2535
2023-04-18T06:06:33.239Z,25.2000
2023-04-18T06:07:37.132Z,25.2054
2023-04-18T06:08:41.055Z,25.2359
2023-04-18T06:09:44.970Z,25.2134
2023-04-18T06:10:48.885Z,25.2152
2023-04-18T06:11:52.828Z,25.2506
2023-04-18T06:12:56.704Z,25.2526
2023-04-18T06:14:00.863Z,25.2161
2023-04-18T06:15:04.762Z,25.2069
2023-04-18T06:16:08.878Z,25.2161
2023-04-18T06:17:12.859Z,25.1965
2023-04-18T06:18:16.738Z,25.2639
2023-04-18T06:19:20.651Z,25.2468
2023-04-18T06:20:24.544Z,25.2873
2023-04-18T06:21:28.436Z,25.3291
2023-04-18T06:22:32.326Z,25.3291
2023-04-18T06:23:36.454Z,25.3089
2023-04-18T06:24:40.345Z,25.2584
2023-04-18T06:25:44.225Z,25.2702
2023-04-18T06:26:48.391Z,25.3721
2023-04-18T06:27:52.270Z,25.3376
2023-04-18T06:28:56.189Z,25.3714
2023-04-18T06:30:00.165Z,25.3360
2023-04-18T06:31:04.081Z,25.3701
2023-04-18T06:32:07.964Z,25.3411
2023-04-18T06:33:11.821Z,25.3489
2023-04-18T06:34:15.905Z,25.3449
2023-04-18T06:35:19.968Z,25.3894
2023-04-18T06:36:24.102Z,25.4003
2023-04-18T06:37:27.995Z,25.3972
2023-04-18T06:38:31.875Z,25.4217
2023-04-18T06:39:35.799Z,25.4239
2023-04-18T06:40:39.738Z,25.4159
2023-04-18T06:41:43.649Z,25.4497
2023-04-18T06:42:47.563Z,25.4724
2023-04-18T06:44:02.851Z,25.5022
2023-04-18T06:44:55.947Z,25.4768
2023-04-18T06:45:59.944Z,25.4913
2023-04-18T06:47:03.845Z,25.4918
2023-04-18T06:48:07.820Z,25.5447
2023-04-18T06:49:11.694Z,25.5792
2023-04-18T06:50:15.579Z,25.6502
2023-04-18T06:51:19.483Z,25.6565
2023-04-18T06:52:23.948Z,25.6845
2023-04-18T06:53:27.818Z,25.6907
2023-04-18T06:54:31.718Z,25.6318
2023-04-18T06:55:35.629Z,25.6440
2023-04-18T06:56:39.565Z,25.6609
2023-04-18T06:57:43.463Z,25.6881
2023-04-18T06:58:47.370Z,25.7486
2023-04-18T06:59:51.261Z,25.7185
2023-04-18T07:00:55.190Z,25.7248
2023-04-18T07:01:59.087Z,25.6553
2023-04-18T07:03:03.101Z,25.6727
2023-04-18T07:04:07.166Z,25.6772
2023-04-18T07:05:11.106Z,25.6542
2023-04-18T07:06:14.995Z,25.6952
2023-04-18T07:07:18.934Z,25.7559
2023-04-18T07:08:22.906Z,25.7726
2023-04-18T07:09:26.860Z,25.7468
2023-04-18T07:10:30.774Z,25.8044
2023-04-18T07:11:34.926Z,25.8218
2023-04-18T07:12:38.833Z,25.7762
2023-04-18T07:13:42.973Z,25.8300
2023-04-18T07:14:46.918Z,25.8567
2023-04-18T07:15:50.813Z,25.8151
2023-04-18T07:16:54.774Z,25.8874
2023-04-18T07:17:58.803Z,25.8792
2023-04-18T07:19:02.704Z,25.8728
2023-04-18T07:20:06.619Z,25.8627
2023-04-18T07:21:10.610Z,25.8630
2023-04-18T07:22:14.531Z,25.7417
2023-04-18T07:23:18.456Z,25.7811
2023-04-18T07:24:22.392Z,25.8089
2023-04-18T07:25:26.310Z,25.8843
2023-04-18T07:26:30.241Z,25.8425
2023-04-18T07:27:34.151Z,25.7706
2023-04-18T07:28:38.401Z,25.7279
2023-04-18T07:29:42.285Z,25.8165
2023-04-18T07:30:46.294Z,25.8445
2023-04-18T07:31:50.216Z,25.8187
2023-04-18T07:32:54.189Z,25.7697
2023-04-18T07:33:58.130Z,25.9035
2023-04-18T07:35:02.157Z,25.9344
2023-04-18T07:36:06.088Z,25.9133
2023-04-18T07:37:10.015Z,25.8810
2023-04-18T07:38:13.963Z,25.9658
2023-04-18T07:39:17.858Z,25.9885
2023-04-18T07:40:21.837Z,25.9535
2023-04-18T07:41:25.730Z,25.9555
2023-04-18T07:42:29.642Z,26.0036
2023-04-18T07:43:33.546Z,25.9704
2023-04-18T07:44:37.509Z,26.0388
2023-04-18T07:45:41.408Z,26.0423
2023-04-18T07:46:45.411Z,26.1184
2023-04-18T07:47:49.388Z,26.0250
2023-04-18T07:48:53.282Z,25.9887
2023-04-18T07:49:57.269Z,25.9669
2023-04-18T07:51:01.187Z,25.9484
2023-04-18T07:52:05.123Z,25.9319
2023-04-18T07:53:09.292Z,25.9070
2023-04-18T07:54:13.242Z,25.9230
2023-04-18T07:55:17.170Z,25.9738
2023-04-18T07:56:21.097Z,26.0045
2023-04-18T07:57:25.019Z,25.9578
2023-04-18T07:58:28.956Z,25.9348
2023-04-18T07:59:32.871Z,25.9622
2023-04-18T08:00:36.827Z,25.9862
2023-04-18T08:01:40.799Z,26.0078
2023-04-18T08:02:44.814Z,26.0045
2023-04-18T08:03:48.868Z,26.0552
2023-04-18T08:04:53.054Z,26.0799
2023-04-18T08:05:57.126Z,26.0290
2023-04-18T08:07:01.070Z,26.0223
2023-04-18T08:08:05.014Z,26.0334
2023-04-18T08:09:08.919Z,26.0588
2023-04-18T08:10:13.107Z,26.0777
2023-04-18T08:11:17.010Z,26.1287
2023-04-18T08:12:20.940Z,26.1994
2023-04-18T08:13:24.873Z,26.2441
2023-04-18T08:14:28.848Z,26.2397
2023-04-18T08:15:33.050Z,26.1689
2023-04-18T08:16:37.002Z,26.1810
2023-04-18T08:17:40.979Z,26.1758
2023-04-18T08:18:44.906Z,26.1680
2023-04-18T08:19:48.859Z,26.2163
2023-04-18T08:20:52.817Z,26.2172
2023-04-18T08:21:56.886Z,26.2308
2023-04-18T08:23:07.323Z,26.2804
2023-04-18T08:24:05.406Z,26.3485
2023-04-18T08:25:09.505Z,26.4139
2023-04-18T08:26:13.426Z,26.4453
2023-04-18T08:27:17.367Z,26.4431
2023-04-18T08:28:21.536Z,26.4482
2023-04-18T08:29:25.446Z,26.4309
2023-04-18T08:30:29.429Z,26.4700
2023-04-18T08:31:33.436Z,26.4551
2023-04-18T08:32:37.507Z,26.4420
2023-04-18T08:33:41.453Z,26.4173
2023-04-18T08:34:45.372Z,26.3868
2023-04-18T08:35:49.334Z,26.4342
2023-04-18T08:36:53.312Z,26.5265
2023-04-18T08:37:57.311Z,26.5292
2023-04-18T08:39:01.236Z,26.5359
2023-04-18T08:40:05.207Z,26.4825
2023-04-18T08:41:09.169Z,26.4513
2023-04-18T08:42:13.082Z,26.4860
2023-04-18T08:43:17.048Z,26.5047
2023-04-18T08:44:21.046Z,26.5125
2023-04-18T08:45:25.016Z,26.4604
2023-04-18T08:46:29.261Z,26.4351
2023-04-18T08:47:33.189Z,26.4482
2023-04-18T08:48:37.228Z,26.4569
2023-04-18T08:49:41.161Z,26.4834
2023-04-18T08:50:45.185Z,26.5134
2023-04-18T08:51:49.057Z,26.4756
2023-04-18T08:52:52.993Z,26.4673
2023-04-18T08:53:56.925Z,26.4740
2023-04-18T08:55:01.006Z,26.4591
2023-04-18T08:56:04.935Z,26.4395
2023-04-18T08:57:09.009Z,26.5735
2023-04-18T08:58:13.015Z,26.6498
2023-04-18T08:59:16.993Z,26.5488
2023-04-18T09:00:21.005Z,26.5094
2023-04-18T09:01:24.966Z,26.4676
2023-04-18T09:02:28.920Z,26.4771
2023-04-18T09:03:32.870Z,26.4840
2023-04-18T09:04:36.959Z,26.5570
2023-04-18T09:05:41.186Z,26.6196
2023-04-18T09:06:46.050Z,26.6774
2023-04-18T09:07:49.951Z,26.7050
2023-04-18T09:08:53.845Z,26.7529
2023-04-18T09:09:53.969Z,26.6192
2023-04-18T09:10:57.860Z,26.6434
2023-04-18T09:12:01.790Z,26.7486
2023-04-18T09:13:05.699Z,26.7520
2023-04-18T09:14:09.629Z,26.7457
2023-04-18T09:15:13.606Z,26.8394
2023-04-18T09:16:17.561Z,26.8855
2023-04-18T09:17:21.522Z,26.7891
2023-04-18T09:18:25.715Z,26.7001
2023-04-18T09:19:29.644Z,26.7139
2023-04-18T09:20:33.585Z,26.6845
2023-04-18T09:21:37.492Z,26.7092
2023-04-18T09:22:41.406Z,26.7402
2023-04-18T09:23:45.336Z,26.6245
2023-04-18T09:24:49.224Z,26.5187
2023-04-18T09:25:53.154Z,26.5508
2023-04-18T09:26:57.098Z,26.6018
2023-04-18T09:28:01.273Z,26.6307
2023-04-18T09:29:05.358Z,26.6966
2023-04-18T09:30:09.272Z,26.7112
2023-04-18T09:31:13.306Z,26.7159
2023-04-18T09:32:17.314Z,26.6458
2023-04-18T09:33:21.211Z,26.6583
2023-04-18T09:34:25.213Z,26.6536
2023-04-18T09:35:29.103Z,26.5475
2023-04-18T09:36:33.105Z,26.4914
2023-04-18T09:37:37.010Z,26.6447
2023-04-18T09:38:41.112Z,26.7115
2023-04-18T09:39:45.146Z,26.5995
2023-04-18T09:40:49.081Z,26.6069
2023-04-18T09:41:52.990Z,26.5475
2023-04-18T09:42:56.961Z,26.5924
2023-04-18T09:44:00.875Z,26.6814
2023-04-18T09:45:05.121Z,26.5468
2023-04-18T09:46:09.079Z,26.4758
2023-04-18T09:47:13.080Z,26.4831
2023-04-18T09:48:16.973Z,26.4257
2023-04-18T09:49:20.884Z,26.4228
2023-04-18T09:50:24.810Z,26.4320
2023-04-18T09:51:28.783Z,26.4558
2023-04-18T09:52:32.859Z,26.5043
2023-04-18T09:53:36.786Z,26.4682
2023-04-18T09:54:40.666Z,26.4965
2023-04-18T09:55:44.596Z,26.5630
2023-04-18T09:56:48.523Z,26.5021
2023-04-18T09:57:52.704Z,26.4814
2023-04-18T09:58:56.660Z,26.4796
2023-04-18T10:00:00.592Z,26.4932
2023-04-18T10:01:04.513Z,26.5461
2023-04-18T10:02:08.582Z,26.4665
2023-04-18T10:03:12.603Z,26.4874
2023-04-18T10:04:16.971Z,26.5016
2023-04-18T10:05:21.434Z,26.4678
2023-04-18T10:06:25.413Z,26.4638
2023-04-18T10:07:29.306Z,26.5297
2023-04-18T10:08:33.209Z,26.5739
2023-04-18T10:09:37.126Z,26.6282
2023-04-18T10:10:41.096Z,26.6311
2023-04-18T10:11:44.988Z,26.6414
2023-04-18T10:12:48.989Z,26.6267
2023-04-18T10:13:53.035Z,26.5991
2023-04-18T10:14:56.970Z,26.5855
2023-04-18T10:16:00.884Z,26.6365
2023-04-18T10:17:04.767Z,26.6612
2023-04-18T10:18:08.727Z,26.6520
2023-04-18T10:19:13.109Z,26.6879
2023-04-18T10:20:17.226Z,26.7942
2023-04-18T10:21:21.181Z,26.7760
2023-04-18T10:22:25.116Z,26.7333
2023-04-18T10:23:29.055Z,26.7715
2023-04-18T10:24:33.092Z,26.7773
2023-04-18T10:25:37.110Z,26.6954
2023-04-18T10:26:41.061Z,26.8107
2023-04-18T10:27:45.335Z,26.8712
2023-04-18T10:28:49.295Z,26.8267
2023-04-18T10:29:53.275Z,26.8970
2023-04-18T10:30:57.404Z,26.9785
2023-04-18T10:32:01.393Z,26.9683
2023-04-18T10:33:08.494Z,27.0544
2023-04-18T10:34:09.847Z,27.0265
2023-04-18T10:35:13.832Z,27.0021
2023-04-18T10:36:17.805Z,26.9789
2023-04-18T10:37:21.808Z,27.0401
2023-04-18T10:38:25.834Z,27.1087
2023-04-18T10:39:29.777Z,27.0484
2023-04-18T10:40:33.781Z,26.9636
2023-04-18T10:41:37.754Z,26.9883
2023-04-18T10:42:41.748Z,26.9442
2023-04-18T10:43:45.648Z,26.8977
2023-04-18T10:44:49.897Z,26.8975
2023-04-18T10:45:53.917Z,26.9171
2023-04-18T10:46:57.864Z,26.9338
2023-04-18T10:47:58.343Z,26.9323
2023-04-18T10:49:02.248Z,26.9360
2023-04-18T10:50:06.968Z,26.9362
2023-04-18T10:51:11.075Z,26.9502
2023-04-18T10:52:15.037Z,27.0043
2023-04-18T10:53:18.986Z,27.0203
2023-04-18T10:54:22.975Z,27.0350
2023-04-18T10:55:27.103Z,26.9671
2023-04-18T10:56:31.115Z,26.9752
2023-04-18T10:57:35.247Z,27.0099
2023-04-18T10:58:39.147Z,27.0021
2023-04-18T10:59:43.102Z,26.9941
2023-04-18T11:00:47.121Z,27.0050
2023-04-18T11:01:51.026Z,26.9718
2023-04-18T11:02:55.190Z,26.9444
2023-04-18T11:03:59.297Z,26.9578
2023-04-18T11:05:03.299Z,26.9789
2023-04-18T11:06:07.239Z,27.1035
2023-04-18T11:07:11.788Z,27.0490
2023-04-18T11:08:15.838Z,27.0399
2023-04-18T11:09:19.795Z,27.0419
2023-04-18T11:10:23.902Z,27.0219
2023-04-18T11:11:27.828Z,27.1013
2023-04-18T11:12:31.782Z,27.0826
2023-04-18T11:13:35.771Z,26.9718
2023-04-18T11:14:39.824Z,26.9442
2023-04-18T11:15:43.783Z,26.9309
2023-04-18T11:16:47.858Z,27.0081
2023-04-18T11:17:51.907Z,26.9925
2023-04-18T11:18:55.888Z,26.9456
2023-04-18T11:19:59.927Z,26.9878
2023-04-18T11:21:03.951Z,27.0935
2023-04-18T11:22:07.906Z,27.0766
2023-04-18T11:23:11.944Z,27.1296
2023-04-18T11:24:16.039Z,27.0822
2023-04-18T11:25:20.147Z,27.1242
2023-04-18T11:26:24.217Z,27.1556
2023-04-18T11:27:28.163Z,27.1572
2023-04-18T11:28:32.167Z,27.1254
2023-04-18T11:29:36.468Z,27.0893
2023-04-18T11:30:40.361Z,27.0363
2023-04-18T11:31:44.378Z,26.9838
2023-04-18T11:32:48.354Z,27.0172
2023-04-18T11:33:52.287Z,27.0795
2023-04-18T11:34:56.268Z,27.0853
2023-04-18T11:36:00.288Z,27.1487
2023-04-18T11:37:04.213Z,27.2678
2023-04-18T11:38:08.157Z,27.1501
2023-04-18T11:39:12.117Z,27.1084
2023-04-18T11:40:16.277Z,27.0593
2023-04-18T11:41:20.242Z,27.0826
2023-04-18T11:42:24.457Z,27.1298
2023-04-18T11:43:28.352Z,27.1494
2023-04-18T11:44:33.764Z,27.0993
2023-04-18T11:45:34.096Z,27.0494
2023-04-18T11:46:38.368Z,27.0355
2023-04-18T11:47:42.579Z,27.0134
2023-04-18T11:48:46.499Z,27.0615
2023-04-18T11:49:50.509Z,27.1098
2023-04-18T11:50:54.465Z,27.1111
2023-04-18T11:51:58.627Z,27.1545
2023-04-18T11:53:02.537Z,27.1879
2023-04-18T11:54:06.465Z,27.2119
2023-04-18T11:55:10.660Z,27.1073
2023-04-18T11:56:14.585Z,27.0181
2023-04-18T11:57:18.523Z,26.9752
2023-04-18T11:58:22.461Z,27.0720
2023-04-18T11:59:26.400Z,27.0412
2023-04-18T12:00:30.383Z,27.0292
2023-04-18T12:01:34.281Z,26.9947
2023-04-18T12:02:38.472Z,26.9683
2023-04-18T12:03:42.669Z,26.9885
2023-04-18T12:04:47.037Z,26.9511
2023-04-18T12:05:51.370Z,26.9834
2023-04-18T12:06:55.393Z,26.9847
2023-04-18T12:07:59.291Z,26.9936
2023-04-18T12:09:03.193Z,27.0541
2023-04-18T12:10:07.370Z,27.1590
2023-04-18T12:11:11.320Z,27.0673
2023-04-18T12:12:15.275Z,27.0312
2023-04-18T12:13:19.238Z,27.0953
2023-04-18T12:14:23.292Z,27.0891
2023-04-18T12:15:27.304Z,27.0179
2023-04-18T12:16:31.295Z,26.9861
2023-04-18T12:17:35.275Z,26.9718
2023-04-18T12:18:39.271Z,26.9785
2023-04-18T12:19:43.132Z,27.1127
2023-04-18T12:20:47.105Z,27.1436
2023-04-18T12:21:51.050Z,27.0234
2023-04-18T12:22:55.052Z,27.0677
2023-04-18T12:23:58.979Z,27.1229
2023-04-18T12:25:02.885Z,27.0953
2023-04-18T12:26:06.816Z,27.1171
2023-04-18T12:27:11.025Z,27.1049
2023-04-18T12:28:14.975Z,27.1171
2023-04-18T12:29:19.292Z,27.1527
2023-04-18T12:30:23.187Z,27.0655
2023-04-18T12:31:27.214Z,26.9560
2023-04-18T12:32:31.237Z,27.0346
2023-04-18T12:33:35.238Z,27.0733
2023-04-18T12:34:39.197Z,27.1485
2023-04-18T12:35:43.116Z,27.1719
2023-04-18T12:36:47.346Z,27.0110
2023-04-18T12:37:51.245Z,27.0092
2023-04-18T12:38:55.201Z,26.9516
2023-04-18T12:39:59.163Z,26.9507
2023-04-18T12:41:03.112Z,26.9298
2023-04-18T12:42:07.041Z,26.9950
2023-04-18T12:43:11.001Z,27.0141
2023-04-18T12:44:15.135Z,27.0452
2023-04-18T12:45:19.105Z,26.9992
2023-04-18T12:46:23.129Z,26.9369
2023-04-18T12:47:27.130Z,26.9358
2023-04-18T12:48:31.057Z,26.8997
2023-04-18T12:49:34.982Z,26.8770
2023-04-18T12:50:38.915Z,26.9295
2023-04-18T12:51:42.796Z,26.9093
2023-04-18T12:52:46.732Z,26.8915
2023-04-18T12:53:50.642Z,26.8430